Terminal Aerodrome Forecast
Issued by NWS Pueblo, CO

Home | Current Version | Previous Version | Text Only | Print | Product List | Glossary On
Versions: 1 2 3 4 5 6 7 8 9 10 11 12 13 14 15 16 17 18 19 20 21 22 23 24 25 26 27 28 29 30 31
000
FTUS45 KPUB 250527
TAFCOS
TAF
KCOS 250527Z 2506/2606 36008KT P6SM SCT120 BKN150
     FM251900 19011KT P6SM VCTS SCT070CB BKN130
     FM260400 VRB06KT P6SM SCT070 BKN130=

USA.gov is the U.S. government's official web portal to all federal, state and local government web resources and services.